Time;durP1;ratioP1;P1;durP2;ratioP2;P2;SDS_P1;SDS_P2;PMS_P1;PMS_P2;Temp;Humidity;BMP_temperature;BMP_pressure;BME280_temperature;BME280_humidity;BME280_pressure;Samples;Min_cycle;Max_cycle;Signal;HPM_P1;HPM_P2
2021/03/11 00:00:00;;;;;;;27.02;19.63;;;3.20;1.00;;;;;;4915853;29;20230;-74
2021/03/11 00:02:27;;;;;;;27.73;21.48;;;3.20;1.00;;;;;;4898120;28;20230;-76
2021/03/11 00:04:53;;;;;;;29.15;20.30;;;3.20;1.00;;;;;;4912430;29;20312;-77
2021/03/11 00:07:20;;;;;;;27.58;21.30;;;3.20;1.00;;;;;;4895159;28;20226;-75
2021/03/11 00:09:46;;;;;;;26.83;21.23;;;3.30;1.00;;;;;;4908148;29;20294;-77
2021/03/11 00:12:12;;;;;;;29.10;21.55;;;3.30;1.00;;;;;;4891779;28;20281;-74
2021/03/11 00:14:39;;;;;;;29.00;22.92;;;3.30;1.00;;;;;;4910910;29;20313;-75
2021/03/11 00:17:05;;;;;;;36.72;24.80;;;3.30;1.00;;;;;;4896306;28;20264;-76
2021/03/11 00:19:33;;;;;;;29.98;22.15;;;3.30;1.00;;;;;;4906223;28;20222;-74
2021/03/11 00:22:00;;;;;;;33.38;22.90;;;3.30;1.00;;;;;;4894856;28;20230;-76
2021/03/11 00:24:26;;;;;;;31.58;23.95;;;3.30;1.00;;;;;;4910216;28;20238;-76
2021/03/11 00:26:53;;;;;;;30.30;23.77;;;3.40;1.00;;;;;;4874710;29;20337;-76
2021/03/11 00:29:23;;;;;;;32.40;23.13;;;3.40;1.00;;;;;;4908732;28;20225;-74
2021/03/11 00:31:51;;;;;;;33.08;22.20;;;3.40;1.00;;;;;;4882196;28;20253;-75
2021/03/11 00:34:17;;;;;;;31.45;23.40;;;3.40;1.00;;;;;;4914727;29;20229;-75
2021/03/11 00:36:44;;;;;;;38.85;24.02;;;3.40;1.00;;;;;;4898627;28;20233;-73
2021/03/11 00:39:11;;;;;;;31.00;23.52;;;3.40;1.00;;;;;;4907515;28;20641;-74
2021/03/11 00:41:38;;;;;;;31.85;22.80;;;3.40;1.00;;;;;;4912228;28;21650;-75
2021/03/11 00:44:04;;;;;;;43.22;24.08;;;3.40;1.00;;;;;;4898150;28;20709;-76
2021/03/11 00:46:30;;;;;;;33.53;25.02;;;3.40;1.00;;;;;;4913106;28;20310;-77
2021/03/11 00:48:57;;;;;;;34.10;24.90;;;3.40;1.00;;;;;;4899851;28;20214;-76
2021/03/11 00:51:23;;;;;;;39.63;23.52;;;3.40;1.00;;;;;;4917646;28;20722;-75
2021/03/11 00:53:50;;;;;;;35.33;26.75;;;3.30;1.00;;;;;;4898546;28;20262;-76
2021/03/11 00:56:17;;;;;;;34.88;24.20;;;3.30;1.00;;;;;;4914235;29;20226;-76
2021/03/11 00:58:43;;;;;;;34.38;25.42;;;3.30;1.00;;;;;;4879130;29;20579;-75
2021/03/11 01:01:09;;;;;;;35.75;24.73;;;3.30;1.00;;;;;;4893471;29;20245;-76
2021/03/11 01:03:36;;;;;;;32.63;23.92;;;3.30;1.00;;;;;;4901724;28;20248;-75
2021/03/11 01:06:03;;;;;;;36.22;25.10;;;3.30;1.00;;;;;;4911540;29;20226;-74
2021/03/11 01:08:32;;;;;;;40.65;26.40;;;3.30;1.00;;;;;;4899522;28;20225;-77
2021/03/11 01:10:59;;;;;;;40.65;26.10;;;3.30;1.00;;;;;;4913297;28;20265;-76
2021/03/11 01:13:27;;;;;;;32.50;25.42;;;3.30;1.00;;;;;;4897007;28;20744;-75
2021/03/11 01:15:54;;;;;;;34.00;25.45;;;3.30;1.00;;;;;;4897960;29;20961;-75
2021/03/11 01:18:23;;;;;;;38.25;25.55;;;3.20;1.00;;;;;;4904107;28;20247;-76
2021/03/11 01:20:50;;;;;;;35.55;26.35;;;3.30;1.00;;;;;;4924895;28;20222;-75
2021/03/11 01:23:17;;;;;;;36.70;25.70;;;3.30;1.00;;;;;;4904791;29;20247;-77
2021/03/11 01:25:43;;;;;;;38.08;25.20;;;3.20;1.00;;;;;;4911898;28;20229;-74
2021/03/11 01:28:10;;;;;;;38.85;26.48;;;3.30;1.00;;;;;;4922746;28;20238;-75
2021/03/11 01:30:36;;;;;;;34.25;26.20;;;3.30;1.00;;;;;;4911315;28;20271;-75
2021/03/11 01:33:03;;;;;;;41.40;27.83;;;3.30;1.00;;;;;;4922690;28;20234;-75
2021/03/11 01:35:29;;;;;;;42.30;28.85;;;3.40;1.00;;;;;;4904815;28;20218;-75
2021/03/11 01:37:56;;;;;;;36.83;25.48;;;3.30;1.00;;;;;;4896501;28;20382;-76
2021/03/11 01:40:22;;;;;;;40.22;26.92;;;3.40;1.00;;;;;;4902622;28;20898;-73
2021/03/11 01:42:48;;;;;;;39.35;27.88;;;3.40;1.00;;;;;;4910965;28;20234;-75
2021/03/11 01:45:17;;;;;;;40.40;27.00;;;3.40;1.00;;;;;;4875760;29;20230;-76
2021/03/11 01:47:44;;;;;;;41.33;26.95;;;3.40;1.00;;;;;;4912482;29;20230;-76
2021/03/11 01:50:11;;;;;;;37.25;26.58;;;3.40;1.00;;;;;;4895240;28;20248;-76
2021/03/11 01:52:40;;;;;;;36.35;26.75;;;3.50;1.00;;;;;;4896631;29;20698;-74
2021/03/11 01:55:08;;;;;;;47.05;28.27;;;3.50;1.00;;;;;;4903687;28;20262;-76
2021/03/11 01:57:35;;;;;;;43.33;29.75;;;3.50;1.00;;;;;;4900523;29;20230;-77
2021/03/11 02:00:05;;;;;;;38.92;27.10;;;3.50;1.00;;;;;;4905134;28;20241;-76
2021/03/11 02:02:33;;;;;;;42.92;28.17;;;3.50;1.00;;;;;;4917964;28;20294;-74
2021/03/11 02:04:59;;;;;;;38.28;27.30;;;3.50;1.00;;;;;;4918499;29;21718;-77
2021/03/11 02:07:25;;;;;;;38.38;26.60;;;3.50;1.00;;;;;;4888777;29;20285;-75
2021/03/11 02:09:51;;;;;;;42.85;29.45;;;3.50;1.00;;;;;;4911973;29;20281;-75
2021/03/11 02:12:25;;;;;;;42.67;28.27;;;3.50;1.00;;;;;;4903681;28;20262;-74
2021/03/11 02:14:59;;;;;;;38.35;26.95;;;3.50;1.00;;;;;;4922322;29;20236;-76
2021/03/11 02:17:35;;;;;;;39.95;29.77;;;3.50;1.00;;;;;;4906482;28;20220;-75
2021/03/11 02:20:38;;;;;;;40.22;27.98;;;3.50;1.00;;;;;;4896230;29;20235;-75
2021/03/11 02:23:42;;;;;;;43.78;29.45;;;3.50;1.00;;;;;;4903451;28;20229;-76
2021/03/11 02:26:24;;;;;;;46.08;30.92;;;3.60;1.00;;;;;;4883694;28;20276;-74
2021/03/11 02:29:04;;;;;;;41.53;27.63;;;3.60;1.00;;;;;;4909500;29;20313;-76
2021/03/11 02:31:32;;;;;;;46.08;29.33;;;3.60;1.00;;;;;;4901677;28;20241;-77
2021/03/11 02:34:00;;;;;;;42.22;28.92;;;3.60;1.00;;;;;;4910077;29;20275;-75
2021/03/11 02:36:27;;;;;;;41.08;27.98;;;3.60;1.00;;;;;;4899235;28;20222;-76
2021/03/11 02:38:55;;;;;;;44.33;28.02;;;3.70;1.00;;;;;;4912754;29;20253;-76
2021/03/11 02:41:23;;;;;;;43.28;29.15;;;3.70;1.00;;;;;;4909715;28;20225;-74
2021/03/11 02:43:51;;;;;;;41.67;29.13;;;3.70;1.00;;;;;;4895803;28;20456;-75
2021/03/11 02:46:20;;;;;;;45.22;29.92;;;3.70;1.00;;;;;;4910026;29;20686;-77
2021/03/11 02:48:49;;;;;;;40.05;29.80;;;3.70;1.00;;;;;;4894577;28;20253;-77
2021/03/11 02:51:17;;;;;;;43.47;29.35;;;3.80;1.00;;;;;;4892645;29;20284;-77
2021/03/11 02:53:43;;;;;;;45.42;28.05;;;3.80;1.00;;;;;;4901560;28;20225;-76
2021/03/11 02:56:10;;;;;;;42.05;28.60;;;3.80;1.00;;;;;;4898119;29;20901;-75
2021/03/11 02:58:39;;;;;;;46.67;30.05;;;3.90;1.00;;;;;;4896543;28;20229;-75
2021/03/11 03:01:07;;;;;;;45.95;31.23;;;3.90;1.00;;;;;;4918175;29;20735;-77
2021/03/11 03:03:36;;;;;;;40.28;29.50;;;3.90;1.00;;;;;;4905202;28;20257;-75
2021/03/11 03:06:03;;;;;;;46.30;30.05;;;3.80;1.00;;;;;;4912960;28;20268;-75
2021/03/11 03:08:31;;;;;;;46.30;32.72;;;3.80;1.00;;;;;;4902306;28;20309;-76
2021/03/11 03:10:58;;;;;;;42.38;29.80;;;3.70;1.00;;;;;;4915776;28;20241;-75
2021/03/11 03:13:26;;;;;;;41.35;30.73;;;3.70;1.00;;;;;;4900562;28;20234;-75
2021/03/11 03:15:55;;;;;;;49.35;31.50;;;3.70;1.00;;;;;;4911709;28;20237;-75
2021/03/11 03:18:23;;;;;;;44.75;30.95;;;3.70;1.00;;;;;;4912600;28;20225;-75
2021/03/11 03:20:51;;;;;;;47.92;31.52;;;3.70;1.00;;;;;;4902566;29;20244;-75
2021/03/11 03:23:20;;;;;;;50.08;31.90;;;3.70;1.00;;;;;;4908358;28;20233;-76
2021/03/11 03:25:47;;;;;;;46.70;31.23;;;3.70;1.00;;;;;;4908647;29;20241;-73
2021/03/11 03:28:13;;;;;;;48.85;31.88;;;3.70;1.00;;;;;;4915035;28;20233;-75
2021/03/11 03:30:40;;;;;;;46.30;31.15;;;3.70;1.00;;;;;;4910267;28;20912;-75
2021/03/11 03:33:06;;;;;;;44.90;30.02;;;3.70;1.00;;;;;;4920888;28;20257;-76
2021/03/11 03:35:33;;;;;;;44.75;31.38;;;3.70;1.00;;;;;;4906454;28;20226;-75
2021/03/11 03:38:00;;;;;;;49.42;31.38;;;3.70;1.00;;;;;;4914817;29;20235;-75
2021/03/11 03:40:26;;;;;;;46.10;33.00;;;3.70;1.00;;;;;;4894226;28;20222;-77
2021/03/11 03:42:57;;;;;;;45.83;31.08;;;3.60;1.00;;;;;;4911377;29;20222;-76
2021/03/11 03:45:27;;;;;;;54.40;33.17;;;3.60;1.00;;;;;;4900344;28;20237;-76
2021/03/11 03:47:55;;;;;;;45.67;31.13;;;3.60;1.00;;;;;;4911502;29;20312;-75
2021/03/11 03:50:22;;;;;;;47.30;32.35;;;3.50;1.00;;;;;;4896064;28;20872;-76
2021/03/11 03:52:52;;;;;;;46.33;32.25;;;3.60;1.00;;;;;;4896127;29;20752;-74
2021/03/11 03:55:20;;;;;;;52.08;33.58;;;3.50;1.00;;;;;;4904945;28;21192;-79
2021/03/11 03:57:50;;;;;;;45.75;31.00;;;3.60;1.00;;;;;;4911657;28;20262;-77
2021/03/11 04:00:18;;;;;;;47.65;31.73;;;3.50;1.00;;;;;;4895479;28;20745;-77
2021/03/11 04:02:45;;;;;;;45.78;32.78;;;3.50;1.00;;;;;;4896675;29;20829;-77
2021/03/11 04:05:12;;;;;;;50.33;32.33;;;3.50;1.00;;;;;;4896711;28;20234;-77
2021/03/11 04:07:40;;;;;;;48.15;32.17;;;3.50;1.00;;;;;;4912763;28;21085;-78
2021/03/11 04:10:07;;;;;;;50.03;32.42;;;3.40;1.00;;;;;;4904366;28;20239;-78
2021/03/11 04:12:36;;;;;;;46.33;32.30;;;3.40;1.00;;;;;;4902348;29;20233;-80
2021/03/11 04:15:04;;;;;;;49.53;32.15;;;3.40;1.00;;;;;;4895000;29;23565;-76
2021/03/11 04:17:31;;;;;;;51.67;32.83;;;3.30;1.00;;;;;;4894648;29;20273;-77
2021/03/11 04:19:57;;;;;;;47.15;30.20;;;3.30;1.00;;;;;;4897678;29;20233;-78
2021/03/11 04:22:24;;;;;;;49.63;30.70;;;3.30;1.00;;;;;;4900258;28;20273;-77
2021/03/11 04:24:51;;;;;;;51.70;33.92;;;3.20;1.00;;;;;;4911797;28;20411;-78
2021/03/11 04:27:17;;;;;;;51.40;33.10;;;3.20;1.00;;;;;;4891255;29;20264;-77
2021/03/11 04:29:45;;;;;;;53.88;33.85;;;3.20;1.00;;;;;;4912716;28;20234;-78
2021/03/11 04:32:12;;;;;;;49.83;32.60;;;3.20;1.00;;;;;;4900393;28;20225;-79
2021/03/11 04:34:38;;;;;;;52.63;33.95;;;3.20;1.00;;;;;;4915528;29;20336;-78
2021/03/11 04:37:05;;;;;;;56.83;33.45;;;3.30;1.00;;;;;;4901925;28;20273;-78
2021/03/11 04:39:32;;;;;;;52.42;33.05;;;3.20;1.00;;;;;;4914692;29;20226;-79
2021/03/11 04:41:58;;;;;;;53.78;32.70;;;3.30;1.00;;;;;;4879900;29;20376;-77
2021/03/11 04:44:26;;;;;;;51.17;34.10;;;3.30;1.00;;;;;;4912669;28;21049;-78
2021/03/11 04:46:56;;;;;;;52.45;34.15;;;3.30;1.00;;;;;;4884212;29;20370;-78
2021/03/11 04:49:26;;;;;;;57.00;34.92;;;3.20;1.00;;;;;;4915047;28;20313;-75
2021/03/11 04:51:53;;;;;;;49.05;31.88;;;3.30;1.00;;;;;;4888595;28;26465;-77
2021/03/11 04:54:20;;;;;;;50.83;34.47;;;3.30;1.00;;;;;;4912073;28;20229;-79
2021/03/11 04:56:48;;;;;;;56.80;33.95;;;3.30;1.00;;;;;;4887364;28;20234;-79
2021/03/11 04:59:15;;;;;;;50.45;34.80;;;3.20;1.00;;;;;;4914548;29;20281;-79
2021/03/11 05:01:44;;;;;;;47.97;32.38;;;3.30;1.00;;;;;;4911603;28;21533;-78
2021/03/11 05:04:12;;;;;;;49.45;30.85;;;3.20;1.00;;;;;;4903220;28;20333;-78
2021/03/11 05:06:38;;;;;;;50.08;34.47;;;3.30;1.00;;;;;;4907784;28;20231;-78
2021/03/11 05:09:05;;;;;;;52.15;33.90;;;3.30;1.00;;;;;;4899452;28;20227;-78
2021/03/11 05:11:31;;;;;;;52.13;32.58;;;3.30;1.00;;;;;;4909362;28;20230;-77
2021/03/11 05:13:57;;;;;;;54.50;35.25;;;3.30;1.00;;;;;;4903294;28;20237;-78
2021/03/11 05:16:23;;;;;;;51.38;32.17;;;3.30;1.00;;;;;;4911368;29;21037;-77
2021/03/11 05:18:50;;;;;;;52.30;33.92;;;3.30;1.00;;;;;;4906932;28;20230;-78
2021/03/11 05:21:17;;;;;;;60.80;36.13;;;3.30;1.00;;;;;;4894427;29;20255;-78
2021/03/11 05:23:43;;;;;;;54.10;34.30;;;3.30;1.00;;;;;;4901230;28;20268;-78
2021/03/11 05:26:09;;;;;;;57.70;35.03;;;3.30;1.00;;;;;;4911459;28;21190;-77
2021/03/11 05:28:35;;;;;;;53.70;33.85;;;3.30;1.00;;;;;;4903234;28;20262;-78
2021/03/11 05:31:02;;;;;;;50.70;33.17;;;3.30;1.00;;;;;;4915095;29;20413;-78
2021/03/11 05:33:28;;;;;;;51.70;32.28;;;3.40;1.00;;;;;;4910220;28;20240;-78
2021/03/11 05:35:54;;;;;;;52.35;32.67;;;3.40;1.00;;;;;;4927000;28;20511;-77
2021/03/11 05:38:22;;;;;;;53.63;32.13;;;3.40;1.00;;;;;;4897442;28;20241;-79
2021/03/11 05:40:52;;;;;;;54.53;33.45;;;3.40;1.00;;;;;;4924021;28;20238;-76
2021/03/11 05:43:18;;;;;;;57.22;34.72;;;3.40;1.00;;;;;;4919888;29;20860;-77
2021/03/11 05:45:46;;;;;;;54.83;33.63;;;3.40;1.00;;;;;;4914078;28;20753;-77
2021/03/11 05:48:15;;;;;;;52.75;34.90;;;3.50;1.00;;;;;;4932068;28;20274;-78
2021/03/11 05:50:42;;;;;;;57.08;33.08;;;3.50;1.00;;;;;;4925312;28;20260;-77
2021/03/11 05:53:11;;;;;;;56.45;33.20;;;3.50;1.00;;;;;;4925997;28;20241;-77
2021/03/11 05:55:39;;;;;;;53.05;34.50;;;3.50;1.00;;;;;;4917227;28;20231;-78
2021/03/11 05:58:06;;;;;;;46.40;32.60;;;3.50;1.00;;;;;;4927394;28;20281;-77
2021/03/11 06:00:32;;;;;;;59.85;34.60;;;3.60;1.00;;;;;;4917854;28;20230;-76
2021/03/11 06:03:01;;;;;;;56.60;34.95;;;3.60;1.00;;;;;;4925416;28;20233;-76
2021/03/11 06:05:28;;;;;;;56.15;34.13;;;3.60;1.00;;;;;;4917971;28;20225;-78
2021/03/11 06:07:55;;;;;;;56.05;35.15;;;3.60;1.00;;;;;;4925151;29;20218;-77
2021/03/11 06:10:26;;;;;;;51.42;33.92;;;3.60;1.00;;;;;;4909404;28;20228;-78
2021/03/11 06:12:56;;;;;;;56.85;33.30;;;3.70;1.00;;;;;;4904988;29;20317;-77
2021/03/11 06:15:29;;;;;;;56.75;34.35;;;3.70;1.00;;;;;;4904253;28;20322;-77
2021/03/11 06:17:57;;;;;;;58.90;34.75;;;3.70;1.00;;;;;;4917729;29;20225;-77
2021/03/11 06:20:23;;;;;;;55.95;32.00;;;3.70;1.00;;;;;;4922143;29;20238;-77
2021/03/11 06:22:49;;;;;;;55.20;33.28;;;3.70;1.00;;;;;;4931430;28;20340;-80
2021/03/11 06:25:17;;;;;;;54.53;33.10;;;3.80;1.00;;;;;;4902868;29;20237;-75
2021/03/11 06:27:46;;;;;;;54.33;32.17;;;3.80;1.00;;;;;;4927641;28;20234;-79
2021/03/11 06:30:32;;;;;;;57.75;34.58;;;3.80;1.00;;;;;;4905459;29;20242;-78
2021/03/11 06:32:59;;;;;;;52.15;32.20;;;3.80;1.00;;;;;;4915439;28;20824;-79
2021/03/11 06:35:26;;;;;;;52.45;33.42;;;3.80;1.00;;;;;;4898890;29;20230;-80
2021/03/11 06:37:52;;;;;;;65.28;34.38;;;3.90;1.00;;;;;;4912146;28;21105;-79
2021/03/11 06:40:22;;;;;;;55.15;32.80;;;3.90;1.00;;;;;;4908941;28;20246;-78
2021/03/11 06:42:49;;;;;;;54.50;34.95;;;3.90;1.00;;;;;;4903337;29;20407;-78
2021/03/11 06:45:21;;;;;;;61.65;35.33;;;3.90;1.00;;;;;;4894284;29;20230;-78
2021/03/11 06:47:48;;;;;;;58.10;32.90;;;4.00;1.00;;;;;;4899982;28;20233;-77
2021/03/11 06:50:15;;;;;;;57.58;33.53;;;4.00;1.00;;;;;;4910967;28;20237;-77
2021/03/11 06:53:00;;;;;;;55.67;34.55;;;4.00;1.00;;;;;;4900719;29;20313;-78
2021/03/11 06:55:26;;;;;;;55.83;35.65;;;4.00;1.00;;;;;;4912079;29;20351;-79
2021/03/11 06:57:53;;;;;;;57.60;34.88;;;4.00;1.00;;;;;;4894086;28;20341;-78
2021/03/11 07:00:21;;;;;;;61.20;37.15;;;4.00;1.00;;;;;;4917584;28;20253;-79
2021/03/11 07:02:53;;;;;;;62.00;36.47;;;4.00;1.00;;;;;;4905221;28;20231;-78
2021/03/11 07:05:21;;;;;;;60.40;35.40;;;4.00;1.00;;;;;;4914833;29;20230;-80
2021/03/11 07:07:48;;;;;;;57.50;34.92;;;4.00;1.00;;;;;;4900931;28;20237;-77
2021/03/11 07:10:26;;;;;;;52.05;33.85;;;4.00;1.00;;;;;;4893342;29;20237;-78
2021/03/11 07:12:54;;;;;;;53.20;34.95;;;4.00;1.00;;;;;;4909001;28;20237;-78
2021/03/11 07:15:22;;;;;;;54.40;33.53;;;4.00;1.00;;;;;;4922998;28;20326;-77
2021/03/11 07:17:49;;;;;;;55.17;35.45;;;4.00;1.00;;;;;;4911946;28;20273;-76
2021/03/11 07:20:18;;;;;;;61.08;36.30;;;4.00;1.00;;;;;;4916608;28;20301;-76
2021/03/11 07:23:03;;;;;;;57.92;34.50;;;4.00;1.00;;;;;;4906856;28;20293;-76
2021/03/11 07:25:31;;;;;;;58.58;34.75;;;4.00;1.00;;;;;;4911937;29;20252;-76
2021/03/11 07:28:01;;;;;;;67.70;38.05;;;4.00;1.00;;;;;;4923650;28;20305;-77
2021/03/11 07:30:28;;;;;;;62.13;36.53;;;4.00;1.00;;;;;;4938996;28;20237;-76
2021/03/11 07:33:00;;;;;;;56.58;33.75;;;4.10;1.00;;;;;;4918052;28;21439;-78
2021/03/11 07:35:31;;;;;;;61.42;36.28;;;4.10;1.00;;;;;;4935017;28;21025;-76
2021/03/11 07:38:01;;;;;;;56.63;34.90;;;4.10;1.00;;;;;;4922749;28;20244;-78
2021/03/11 07:40:29;;;;;;;64.55;37.53;;;4.10;1.00;;;;;;4903140;29;20917;-78
2021/03/11 07:42:56;;;;;;;65.93;45.25;;;4.10;1.00;;;;;;4925419;28;20529;-76
2021/03/11 07:45:23;;;;;;;63.45;40.30;;;4.10;1.00;;;;;;4902998;28;20250;-74
2021/03/11 07:47:51;;;;;;;62.97;37.22;;;4.20;1.00;;;;;;4912647;28;20217;-76
2021/03/11 07:50:21;;;;;;;57.58;36.28;;;4.10;1.00;;;;;;4897698;28;20241;-77
2021/03/11 07:52:48;;;;;;;56.97;36.92;;;4.20;1.00;;;;;;4904959;28;20247;-77
2021/03/11 07:55:15;;;;;;;63.35;37.35;;;4.20;1.00;;;;;;4882176;29;20240;-77
2021/03/11 07:57:44;;;;;;;60.13;35.35;;;4.20;1.00;;;;;;4909108;28;21010;-76
2021/03/11 08:00:13;;;;;;;57.75;35.15;;;4.20;1.00;;;;;;4895076;28;20228;-76
2021/03/11 08:02:44;;;;;;;51.00;33.20;;;4.20;1.00;;;;;;4884072;29;20265;-76
2021/03/11 08:05:12;;;;;;;55.55;36.92;;;4.20;1.00;;;;;;4889718;28;21550;-75
2021/03/11 08:07:38;;;;;;;61.85;37.75;;;4.30;1.00;;;;;;4905938;29;20241;-76
2021/03/11 08:10:20;;;;;;;53.55;34.10;;;4.30;1.00;;;;;;4892548;28;20238;-77
2021/03/11 08:12:47;;;;;;;63.15;36.00;;;4.30;1.00;;;;;;4905410;28;20229;-76
2021/03/11 08:15:31;;;;;;;59.70;36.70;;;4.40;1.00;;;;;;4891337;28;21086;-75
2021/03/11 08:17:57;;;;;;;52.80;34.70;;;4.40;1.00;;;;;;4904086;29;20300;-75
2021/03/11 08:20:38;;;;;;;56.92;34.17;;;4.40;1.00;;;;;;4895362;28;20691;-76
2021/03/11 08:23:06;;;;;;;57.25;33.95;;;4.40;1.00;;;;;;4906167;28;20226;-78
2021/03/11 08:25:41;;;;;;;54.88;35.15;;;4.50;1.00;;;;;;4900533;28;20219;-76
2021/03/11 08:28:47;;;;;;;53.25;33.80;;;4.50;1.00;;;;;;4910241;28;20236;-76
2021/03/11 08:31:14;;;;;;;54.53;34.35;;;4.50;1.00;;;;;;4890639;28;21125;-77
2021/03/11 08:33:51;;;;;;;58.70;34.80;;;4.50;1.00;;;;;;4889797;29;20301;-75
2021/03/11 08:36:36;;;;;;;54.60;34.22;;;4.50;1.00;;;;;;4895099;28;20323;-77
2021/03/11 08:39:04;;;;;;;59.45;35.15;;;4.60;1.00;;;;;;4902749;28;20281;-77
2021/03/11 08:41:35;;;;;;;58.47;35.70;;;4.60;1.00;;;;;;4894307;28;20225;-77
2021/03/11 08:44:03;;;;;;;55.58;35.95;;;4.60;1.00;;;;;;4904187;28;20282;-76
2021/03/11 08:46:53;;;;;;;54.35;34.92;;;4.60;1.00;;;;;;4898213;28;20221;-76
2021/03/11 08:49:40;;;;;;;53.00;32.05;;;4.60;1.00;;;;;;4904604;28;20251;-76
2021/03/11 08:52:07;;;;;;;52.92;33.60;;;4.70;1.00;;;;;;4903786;28;20264;-78
2021/03/11 08:54:33;;;;;;;50.58;34.50;;;4.70;1.00;;;;;;4917808;29;20226;-76
2021/03/11 08:57:01;;;;;;;49.20;31.75;;;4.70;1.00;;;;;;4908057;28;20314;-77
2021/03/11 08:59:47;;;;;;;47.83;33.83;;;4.80;1.00;;;;;;4916338;28;20254;-76
2021/03/11 09:02:33;;;;;;;50.83;31.52;;;4.80;1.00;;;;;;4901371;28;20697;-77
2021/03/11 09:04:59;;;;;;;48.85;33.28;;;4.90;1.00;;;;;;4913155;29;20280;-78
2021/03/11 09:07:31;;;;;;;45.83;30.00;;;4.90;1.00;;;;;;4905277;28;20222;-75
2021/03/11 09:09:57;;;;;;;49.25;29.77;;;5.00;1.00;;;;;;4919162;29;20320;-79
2021/03/11 09:12:32;;;;;;;49.35;32.60;;;5.00;1.00;;;;;;4911242;28;20852;-77
2021/03/11 09:15:02;;;;;;;50.38;30.13;;;5.00;1.00;;;;;;4925204;29;20225;-75
2021/03/11 09:17:30;;;;;;;50.15;31.83;;;5.00;1.00;;;;;;4923431;28;20226;-76
2021/03/11 09:20:00;;;;;;;47.78;31.63;;;5.00;1.00;;;;;;4926265;28;20230;-75
2021/03/11 09:22:30;;;;;;;46.67;31.48;;;5.00;1.00;;;;;;4919928;29;20225;-77
2021/03/11 09:25:14;;;;;;;48.50;30.73;;;5.10;1.00;;;;;;4933005;28;20257;-76
2021/03/11 09:27:52;;;;;;;55.78;32.13;;;5.10;1.00;;;;;;4916461;28;20222;-77
2021/03/11 09:30:21;;;;;;;48.90;30.42;;;5.10;1.00;;;;;;4923855;28;20226;-76
2021/03/11 09:32:48;;;;;;;46.88;28.65;;;5.10;1.00;;;;;;4917659;29;20267;-76
2021/03/11 09:35:15;;;;;;;50.83;31.25;;;5.10;1.00;;;;;;4923594;28;20234;-75
2021/03/11 09:37:56;;;;;;;51.40;30.13;;;5.20;1.00;;;;;;4906884;29;20316;-80
2021/03/11 09:40:29;;;;;;;44.88;28.52;;;5.20;1.00;;;;;;4893684;29;20945;-79
2021/03/11 09:43:13;;;;;;;46.80;28.33;;;5.20;1.00;;;;;;4900951;28;20225;-80
2021/03/11 09:45:47;;;;;;;45.97;30.52;;;5.20;1.00;;;;;;4916974;29;20221;-79
2021/03/11 09:48:16;;;;;;;43.13;27.73;;;5.30;1.00;;;;;;4901931;28;20238;-80
2021/03/11 09:50:58;;;;;;;43.25;29.05;;;5.40;1.00;;;;;;4900032;29;21215;-80
2021/03/11 09:53:31;;;;;;;44.28;27.95;;;5.40;1.00;;;;;;4900711;28;20249;-81
2021/03/11 09:56:00;;;;;;;47.25;29.83;;;5.40;1.00;;;;;;4914999;28;20252;-79
2021/03/11 09:58:28;;;;;;;38.40;25.92;;;5.40;1.00;;;;;;4906787;28;20225;-80
2021/03/11 10:00:54;;;;;;;41.70;28.55;;;5.50;1.00;;;;;;4916707;28;20226;-79
2021/03/11 10:03:26;;;;;;;41.75;26.13;;;5.50;1.00;;;;;;4914803;29;20226;-79
2021/03/11 10:05:55;;;;;;;47.17;28.13;;;5.50;1.00;;;;;;4896250;28;20230;-77
2021/03/11 10:08:32;;;;;;;39.20;28.00;;;5.60;1.00;;;;;;4914770;29;20281;-76
2021/03/11 10:11:10;;;;;;;41.38;26.65;;;5.60;1.00;;;;;;4905497;28;21097;-77
2021/03/11 10:13:51;;;;;;;40.75;26.65;;;5.60;1.00;;;;;;4916734;29;20835;-76
2021/03/11 10:16:20;;;;;;;42.38;27.33;;;5.70;1.00;;;;;;4901669;28;20245;-78
2021/03/11 10:19:04;;;;;;;42.95;27.05;;;5.70;1.00;;;;;;4922699;28;20210;-75
2021/03/11 10:21:32;;;;;;;42.42;25.35;;;5.80;1.00;;;;;;4899934;28;20232;-80
2021/03/11 10:23:59;;;;;;;39.67;25.55;;;5.80;1.00;;;;;;4913149;29;20234;-79
2021/03/11 10:26:34;;;;;;;39.45;25.42;;;5.80;1.00;;;;;;4892918;28;20222;-79
2021/03/11 10:29:05;;;;;;;40.03;25.20;;;5.90;1.00;;;;;;4909569;28;20776;-76
2021/03/11 10:31:32;;;;;;;32.35;24.38;;;5.90;1.00;;;;;;4892062;28;20316;-78
2021/03/11 10:34:04;;;;;;;34.65;25.80;;;5.90;1.00;;;;;;4889426;29;20318;-78
2021/03/11 10:36:31;;;;;;;37.00;25.75;;;5.90;1.00;;;;;;4893661;28;20217;-79
2021/03/11 10:39:18;;;;;;;37.60;27.35;;;5.90;1.00;;;;;;4904753;28;20234;-78
2021/03/11 10:42:01;;;;;;;34.63;25.42;;;5.90;1.00;;;;;;4893045;28;20229;-77
2021/03/11 10:44:28;;;;;;;40.83;26.25;;;5.90;1.00;;;;;;4897439;28;20710;-78
2021/03/11 10:47:14;;;;;;;34.83;25.52;;;5.90;1.00;;;;;;4888268;28;20218;-77
2021/03/11 10:49:42;;;;;;;35.25;24.50;;;6.00;1.00;;;;;;4913253;28;20239;-75
2021/03/11 10:52:08;;;;;;;34.05;23.67;;;6.00;1.00;;;;;;4893248;28;21300;-77
2021/03/11 10:54:35;;;;;;;35.13;24.33;;;6.00;1.00;;;;;;4905328;28;20226;-77
2021/03/11 10:57:09;;;;;;;40.17;25.25;;;6.10;1.00;;;;;;4891208;28;21055;-77
2021/03/11 10:59:54;;;;;;;35.50;25.98;;;6.20;1.00;;;;;;4905061;28;20221;-75
2021/03/11 11:02:23;;;;;;;38.03;24.10;;;6.30;1.00;;;;;;4899414;28;20233;-75
2021/03/11 11:04:50;;;;;;;39.63;25.20;;;6.60;1.00;;;;;;4906532;28;20229;-77
2021/03/11 11:07:16;;;;;;;34.28;24.30;;;7.10;1.00;;;;;;4892867;28;20230;-75
2021/03/11 11:09:43;;;;;;;34.20;24.60;;;7.40;1.00;;;;;;4901956;29;20234;-78
2021/03/11 11:12:13;;;;;;;32.15;22.63;;;7.80;1.00;;;;;;4902655;28;20233;-77
2021/03/11 11:14:40;;;;;;;31.60;22.35;;;8.60;1.00;;;;;;4910968;28;20221;-78
2021/03/11 11:17:07;;;;;;;28.60;22.00;;;9.10;1.00;;;;;;4902594;28;20226;-79
2021/03/11 11:19:33;;;;;;;28.08;19.65;;;9.00;1.00;;;;;;4918641;28;21200;-80
2021/03/11 11:22:00;;;;;;;26.02;19.35;;;8.70;1.00;;;;;;4908843;28;20843;-78
2021/03/11 11:24:26;;;;;;;21.73;16.65;;;8.60;1.00;;;;;;4911995;28;20230;-78
2021/03/11 11:26:54;;;;;;;21.00;18.08;;;8.40;1.00;;;;;;4913972;28;20317;-79
2021/03/11 11:29:20;;;;;;;22.85;18.45;;;8.30;1.00;;;;;;4915703;28;20222;-79
2021/03/11 11:31:46;;;;;;;23.73;17.98;;;8.40;1.00;;;;;;4920858;28;20317;-78
2021/03/11 11:34:13;;;;;;;19.08;16.55;;;8.50;1.00;;;;;;4913463;28;20217;-79
2021/03/11 11:36:41;;;;;;;19.70;16.33;;;8.50;1.00;;;;;;4914118;28;20713;-79
2021/03/11 11:39:08;;;;;;;17.67;15.60;;;8.70;1.00;;;;;;4894088;29;20242;-77
2021/03/11 11:41:36;;;;;;;18.20;14.73;;;8.70;1.00;;;;;;4918060;28;20226;-77
2021/03/11 11:44:02;;;;;;;17.45;14.60;;;8.60;1.00;;;;;;4907860;28;21150;-78
2021/03/11 11:46:29;;;;;;;19.30;16.42;;;8.60;1.00;;;;;;4918291;29;20225;-80
2021/03/11 11:48:55;;;;;;;18.60;15.05;;;8.50;1.00;;;;;;4904898;28;20446;-80
2021/03/11 11:51:22;;;;;;;15.85;14.25;;;8.50;1.00;;;;;;4908339;29;20308;-81
2021/03/11 11:53:48;;;;;;;18.63;14.65;;;8.60;1.00;;;;;;4903479;29;20346;-79
2021/03/11 11:56:14;;;;;;;17.92;13.63;;;9.30;1.00;;;;;;4924131;29;20229;-81
2021/03/11 11:58:44;;;;;;;15.07;13.05;;;9.80;1.00;;;;;;4902138;29;20302;-79
2021/03/11 12:01:10;;;;;;;13.40;12.00;;;10.60;1.00;;;;;;4919828;29;20507;-80
2021/03/11 12:03:37;;;;;;;13.82;12.35;;;11.10;1.00;;;;;;4911900;28;20456;-78
2021/03/11 12:06:04;;;;;;;10.67;9.57;;;11.70;1.00;;;;;;4920647;29;20231;-76
2021/03/11 12:08:34;;;;;;;12.47;10.93;;;11.70;1.00;;;;;;4918667;28;20468;-76
2021/03/11 12:11:00;;;;;;;16.10;11.57;;;11.50;1.00;;;;;;4915828;28;20461;-77
2021/03/11 12:13:27;;;;;;;10.53;9.03;;;11.90;1.00;;;;;;4903467;29;20473;-76
2021/03/11 12:15:54;;;;;;;11.90;9.37;;;12.40;1.00;;;;;;4899613;28;20638;-76
2021/03/11 12:18:20;;;;;;;10.60;9.33;;;12.90;1.00;;;;;;4913844;29;20488;-76
2021/03/11 12:20:46;;;;;;;11.25;10.15;;;13.10;1.00;;;;;;4906367;28;20430;-75
2021/03/11 12:23:13;;;;;;;10.73;9.60;;;13.50;1.00;;;;;;4915195;29;20296;-76
2021/03/11 12:25:40;;;;;;;11.33;9.00;;;14.00;1.00;;;;;;4902461;28;20549;-77
2021/03/11 12:28:06;;;;;;;10.68;9.57;;;14.70;1.00;;;;;;4912185;29;20429;-76
2021/03/11 12:30:33;;;;;;;9.60;8.70;;;15.80;1.00;;;;;;4912464;28;20487;-77
2021/03/11 12:32:59;;;;;;;9.82;8.93;;;16.00;1.00;;;;;;4915374;28;20455;-77
2021/03/11 12:35:26;;;;;;;8.80;7.90;;;16.00;1.00;;;;;;4898366;28;20225;-76
2021/03/11 12:37:55;;;;;;;10.10;9.10;;;15.50;1.00;;;;;;4904759;28;20428;-76
2021/03/11 12:40:23;;;;;;;10.10;9.03;;;14.40;1.00;;;;;;4893797;28;20838;-76
2021/03/11 12:42:50;;;;;;;9.83;8.93;;;13.70;1.00;;;;;;4913694;28;20465;-78
2021/03/11 12:45:18;;;;;;;10.37;9.00;;;13.10;1.00;;;;;;4897643;29;20521;-75
2021/03/11 12:47:44;;;;;;;11.13;9.73;;;12.20;1.00;;;;;;4889272;29;21196;-82
2021/03/11 12:50:12;;;;;;;10.43;8.80;;;11.90;1.00;;;;;;4908688;28;20470;-77
2021/03/11 12:52:38;;;;;;;10.33;9.13;;;11.90;1.00;;;;;;4903181;28;20606;-77
2021/03/11 12:55:05;;;;;;;9.23;8.33;;;11.80;1.00;;;;;;4911766;28;20611;-76
2021/03/11 12:57:31;;;;;;;12.03;9.53;;;11.60;1.00;;;;;;4898854;29;21175;-77